createdAt,value
2019-03-18T00:00:14.462Z,78.54
2019-03-18T00:02:42.847Z,78.43
2019-03-18T00:05:11.408Z,78.69
2019-03-18T00:07:39.792Z,78.75
2019-03-18T00:10:08.815Z,78.60
2019-03-18T00:12:37.232Z,78.28
2019-03-18T00:15:08.052Z,78.20
2019-03-18T00:17:36.437Z,78.69
2019-03-18T00:20:06.875Z,78.28
2019-03-18T00:22:35.259Z,78.54
2019-03-18T00:25:05.403Z,78.29
2019-03-18T00:27:33.791Z,77.66
2019-03-18T00:30:02.177Z,77.27
2019-03-18T00:32:30.563Z,77.23
2019-03-18T00:34:58.943Z,77.06
2019-03-18T00:37:27.521Z,76.94
2019-03-18T00:39:55.895Z,77.02
2019-03-18T00:42:24.291Z,77.27
2019-03-18T00:44:52.708Z,76.89
2019-03-18T00:47:21.087Z,77.11
2019-03-18T00:49:49.489Z,77.38
2019-03-18T00:52:17.883Z,77.06
2019-03-18T00:54:46.274Z,76.57
2019-03-18T00:57:14.657Z,76.15
2019-03-18T00:59:43.050Z,76.15
2019-03-18T01:02:11.420Z,76.69
2019-03-18T01:04:39.838Z,76.12
2019-03-18T01:07:08.222Z,76.45
2019-03-18T01:09:36.611Z,76.31
2019-03-18T01:12:05.104Z,76.54
2019-03-18T01:14:33.485Z,76.83
2019-03-18T01:17:01.872Z,76.87
2019-03-18T01:19:30.360Z,76.35
2019-03-18T01:21:58.733Z,77.28
2019-03-18T01:24:27.495Z,77.08
2019-03-18T01:26:56.122Z,76.15
2019-03-18T01:29:24.513Z,76.08
2019-03-18T01:31:52.892Z,75.90
2019-03-18T01:34:21.563Z,75.79
2019-03-18T01:36:49.947Z,75.92
2019-03-18T01:39:18.346Z,76.07
2019-03-18T01:41:47.175Z,75.75
2019-03-18T01:44:15.558Z,75.74
2019-03-18T01:46:43.954Z,75.65
2019-03-18T01:49:12.349Z,75.96
2019-03-18T01:51:40.739Z,76.04
2019-03-18T01:54:09.302Z,75.95
2019-03-18T01:56:37.685Z,74.65
2019-03-18T01:59:06.346Z,75.25
2019-03-18T02:01:34.742Z,74.91
2019-03-18T02:04:03.131Z,74.77
2019-03-18T02:06:31.712Z,75.36
2019-03-18T02:09:00.095Z,74.38
2019-03-18T02:11:28.484Z,74.24
2019-03-18T02:13:56.883Z,74.09
2019-03-18T02:16:25.287Z,74.42
2019-03-18T02:18:53.987Z,75.14
2019-03-18T02:21:22.380Z,75.82
2019-03-18T02:23:50.759Z,75.82
2019-03-18T02:26:19.537Z,76.03
2019-03-18T02:28:47.917Z,76.19
2019-03-18T02:31:16.312Z,76.28
2019-03-18T02:33:44.708Z,76.21
2019-03-18T02:36:13.097Z,76.32
2019-03-18T02:38:41.481Z,76.33
2019-03-18T02:41:10.028Z,76.60
2019-03-18T02:43:38.404Z,76.06
2019-03-18T02:46:10.471Z,75.26
2019-03-18T02:48:36.996Z,75.80
2019-03-18T02:51:05.456Z,76.53
2019-03-18T02:53:33.777Z,76.01
2019-03-18T02:56:02.180Z,76.45
2019-03-18T02:58:30.565Z,76.17
2019-03-18T03:00:58.963Z,74.31
2019-03-18T03:03:27.339Z,74.55
2019-03-18T03:05:55.722Z,73.55
2019-03-18T03:08:24.114Z,73.97
2019-03-18T03:10:54.128Z,74.43
2019-03-18T03:13:22.474Z,74.77
2019-03-18T03:15:50.875Z,75.36
2019-03-18T03:18:19.260Z,74.82
2019-03-18T03:20:47.658Z,75.02
2019-03-18T03:23:16.544Z,75.25
2019-03-18T03:25:44.937Z,75.54
2019-03-18T03:28:13.308Z,76.00
2019-03-18T03:30:41.814Z,75.76
2019-03-18T03:33:10.431Z,75.18
2019-03-18T03:35:38.846Z,75.50
2019-03-18T03:38:07.235Z,75.50
2019-03-18T03:40:35.626Z,75.97
2019-03-18T03:43:04.148Z,76.29
2019-03-18T03:45:32.525Z,76.88
2019-03-18T03:48:00.909Z,76.57
2019-03-18T03:50:29.308Z,76.26
2019-03-18T03:52:57.693Z,76.36
2019-03-18T03:55:26.084Z,76.04
2019-03-18T03:57:54.602Z,76.34
2019-03-18T04:00:23.063Z,76.41
2019-03-18T04:02:51.571Z,76.62
2019-03-18T04:05:20.008Z,76.85
2019-03-18T04:07:48.351Z,77.20
2019-03-18T04:10:16.734Z,77.14
2019-03-18T04:12:45.120Z,77.34
2019-03-18T04:15:14.673Z,77.33
2019-03-18T04:17:43.034Z,77.78
2019-03-18T04:20:15.961Z,77.81
2019-03-18T04:22:44.657Z,78.08
2019-03-18T04:25:13.118Z,77.22
2019-03-18T04:27:41.996Z,77.21
2019-03-18T04:30:14.450Z,77.19
2019-03-18T04:32:42.849Z,77.64
2019-03-18T04:35:11.206Z,77.72
2019-03-18T04:37:39.576Z,77.67
2019-03-18T04:40:09.709Z,77.89
2019-03-18T04:42:38.098Z,77.82
2019-03-18T04:45:07.997Z,78.00
2019-03-18T04:47:36.376Z,78.20
2019-03-18T04:50:07.026Z,77.64
2019-03-18T04:52:35.443Z,77.34
2019-03-18T04:55:04.796Z,77.47
2019-03-18T04:57:33.180Z,77.43
2019-03-18T05:00:01.572Z,77.54
2019-03-18T05:02:29.952Z,77.64
2019-03-18T05:04:58.348Z,77.90
2019-03-18T05:07:26.740Z,77.20
2019-03-18T05:09:55.122Z,78.15
2019-03-18T05:12:23.511Z,77.72
2019-03-18T05:14:51.916Z,77.31
2019-03-18T05:17:26.553Z,76.61
2019-03-18T05:19:50.423Z,76.78
2019-03-18T05:22:18.804Z,76.19
2019-03-18T05:24:47.180Z,76.30
2019-03-18T05:27:15.590Z,76.35
2019-03-18T05:29:43.968Z,76.41
2019-03-18T05:32:12.343Z,77.21
2019-03-18T05:34:40.744Z,76.44
2019-03-18T05:37:09.121Z,76.37
2019-03-18T05:39:37.907Z,76.24
2019-03-18T05:42:06.297Z,76.41
2019-03-18T05:44:34.670Z,76.88
2019-03-18T05:47:03.061Z,76.70
2019-03-18T05:49:31.439Z,76.47
2019-03-18T05:51:59.854Z,76.42
2019-03-18T05:54:28.248Z,76.36
2019-03-18T05:56:56.623Z,76.51
2019-03-18T05:59:25.936Z,76.54
2019-03-18T06:01:54.337Z,76.18
2019-03-18T06:04:22.711Z,75.01
2019-03-18T06:06:51.623Z,75.31
2019-03-18T06:09:20.000Z,75.51
2019-03-18T06:11:48.380Z,76.25
2019-03-18T06:14:16.855Z,77.00
2019-03-18T06:16:45.229Z,77.15
2019-03-18T06:19:13.622Z,77.03
2019-03-18T06:21:42.007Z,77.10
2019-03-18T06:24:10.386Z,77.74
2019-03-18T06:26:38.808Z,77.94
2019-03-18T06:29:07.197Z,77.91
2019-03-18T06:31:35.584Z,77.69
2019-03-18T06:34:03.987Z,78.14
2019-03-18T06:36:32.384Z,77.40
2019-03-18T06:39:00.763Z,76.62
2019-03-18T06:41:29.326Z,76.38
2019-03-18T06:43:57.721Z,76.64
2019-03-18T06:46:26.112Z,76.53
2019-03-18T06:48:54.869Z,76.77
2019-03-18T06:51:23.244Z,77.14
2019-03-18T06:53:51.622Z,76.84
2019-03-18T06:56:20.113Z,76.83
2019-03-18T06:58:48.503Z,77.16
2019-03-18T07:01:16.872Z,76.68
2019-03-18T07:03:45.272Z,76.79
2019-03-18T07:06:13.654Z,76.84
2019-03-18T07:08:42.059Z,76.44
2019-03-18T07:11:10.461Z,75.72
2019-03-18T07:13:38.843Z,75.92
2019-03-18T07:16:07.243Z,76.22
2019-03-18T07:18:35.624Z,75.56
2019-03-18T07:21:04.314Z,76.22
2019-03-18T07:23:32.700Z,75.62
2019-03-18T07:26:01.096Z,75.97
2019-03-18T07:28:29.488Z,75.73
2019-03-18T07:30:57.880Z,75.30
2019-03-18T07:33:27.088Z,76.05
2019-03-18T07:35:55.477Z,74.78
2019-03-18T07:38:23.863Z,75.89
2019-03-18T07:40:52.253Z,75.20
2019-03-18T07:43:20.637Z,74.33
2019-03-18T07:45:49.406Z,74.11
2019-03-18T07:48:30.020Z,75.01
2019-03-18T07:50:47.965Z,74.74
2019-03-18T07:53:18.289Z,74.47
2019-03-18T07:55:46.494Z,75.55
2019-03-18T07:58:14.872Z,75.44
2019-03-18T08:00:43.723Z,73.41
2019-03-18T08:03:12.056Z,72.35
2019-03-18T08:05:40.447Z,70.75
2019-03-18T08:08:08.862Z,70.93
2019-03-18T08:10:37.245Z,69.47
2019-03-18T08:13:05.642Z,68.70
2019-03-18T08:15:34.062Z,67.77
2019-03-18T08:18:02.440Z,68.22
2019-03-18T08:20:30.827Z,67.70
2019-03-18T08:22:59.336Z,67.88
2019-03-18T08:25:27.711Z,69.55
2019-03-18T08:27:56.101Z,69.59
2019-03-18T08:30:24.595Z,69.93
2019-03-18T08:32:52.989Z,70.74
2019-03-18T08:35:21.363Z,69.98
2019-03-18T08:37:49.747Z,70.33
2019-03-18T08:40:18.413Z,69.39
2019-03-18T08:42:46.828Z,68.61
2019-03-18T08:45:15.211Z,69.01
2019-03-18T08:47:43.613Z,69.27
2019-03-18T08:50:12.973Z,69.58
2019-03-18T08:52:41.475Z,69.47
2019-03-18T08:55:10.901Z,69.81
2019-03-18T08:57:39.305Z,70.15
2019-03-18T09:00:11.064Z,71.21
2019-03-18T09:02:39.731Z,70.61
2019-03-18T09:05:09.551Z,70.91
2019-03-18T09:07:37.943Z,69.03
2019-03-18T09:10:13.905Z,67.84
2019-03-18T09:12:42.609Z,68.26
2019-03-18T09:15:11.834Z,68.99
2019-03-18T09:17:40.211Z,70.13
2019-03-18T09:20:16.960Z,68.33
2019-03-18T09:22:45.353Z,66.68
2019-03-18T09:25:13.810Z,65.27
2019-03-18T09:27:42.389Z,64.00
2019-03-18T09:30:16.027Z,63.85
2019-03-18T09:32:44.420Z,62.32
2019-03-18T09:35:12.899Z,62.85
2019-03-18T09:37:41.285Z,61.63
2019-03-18T09:40:11.407Z,61.10
2019-03-18T09:42:39.819Z,61.29
2019-03-18T09:45:10.806Z,60.65
2019-03-18T09:47:39.526Z,60.89
2019-03-18T09:50:10.053Z,60.80
2019-03-18T09:52:38.436Z,59.41
2019-03-18T09:55:07.860Z,62.79
2019-03-18T09:57:36.595Z,64.74
2019-03-18T10:00:18.896Z,64.59
2019-03-18T10:02:47.304Z,64.45
2019-03-18T10:05:15.692Z,63.41
2019-03-18T10:07:44.083Z,61.95
2019-03-18T10:10:13.932Z,63.20
2019-03-18T10:12:42.312Z,61.36
2019-03-18T10:15:20.893Z,60.35
2019-03-18T10:17:49.316Z,62.54
2019-03-18T10:20:17.648Z,62.70
2019-03-18T10:22:46.078Z,61.89
2019-03-18T10:25:14.432Z,61.87
2019-03-18T10:27:42.837Z,61.25
2019-03-18T10:30:15.379Z,61.61
2019-03-18T10:32:43.755Z,61.60
2019-03-18T10:35:12.279Z,62.97
2019-03-18T10:37:40.680Z,61.41
2019-03-18T10:40:13.042Z,60.84
2019-03-18T10:42:41.488Z,60.62
2019-03-18T10:45:11.615Z,57.01
2019-03-18T10:47:40.021Z,57.37
2019-03-18T10:50:10.725Z,55.63
2019-03-18T10:52:39.241Z,56.75
2019-03-18T10:55:09.363Z,58.24
2019-03-18T10:57:37.735Z,60.43
2019-03-18T11:00:12.085Z,61.07
2019-03-18T11:02:40.469Z,62.24
2019-03-18T11:05:09.641Z,60.63
2019-03-18T11:07:38.020Z,53.25
2019-03-18T11:10:12.671Z,56.49
2019-03-18T11:12:41.521Z,52.38
2019-03-18T11:15:13.001Z,51.21
2019-03-18T11:17:41.520Z,47.82
2019-03-18T11:20:14.180Z,48.06
2019-03-18T11:22:42.640Z,47.91
2019-03-18T11:25:12.347Z,47.50
2019-03-18T11:27:40.723Z,48.29
2019-03-18T11:30:20.248Z,47.26
2019-03-18T11:32:48.641Z,46.84
2019-03-18T11:35:17.034Z,45.63
2019-03-18T11:37:45.498Z,45.35
2019-03-18T11:40:21.938Z,44.85
2019-03-18T11:42:50.901Z,48.17
2019-03-18T11:45:19.259Z,51.03
2019-03-18T11:47:47.716Z,52.30
2019-03-18T11:50:19.731Z,53.25
2019-03-18T11:52:48.205Z,54.37
2019-03-18T11:55:25.044Z,52.78
2019-03-18T11:57:53.496Z,52.84
2019-03-18T12:00:24.252Z,52.39
2019-03-18T12:02:52.694Z,50.35
2019-03-18T12:05:27.411Z,49.32
2019-03-18T12:07:55.833Z,50.51
2019-03-18T12:10:25.926Z,50.89
2019-03-18T12:12:54.645Z,48.69
2019-03-18T12:15:26.830Z,48.69
2019-03-18T12:17:55.288Z,49.05
2019-03-18T12:20:25.406Z,50.21
2019-03-18T12:22:53.889Z,49.54
2019-03-18T12:25:22.351Z,51.37
2019-03-18T12:27:50.746Z,54.88
2019-03-18T12:30:24.623Z,56.19
2019-03-18T12:32:53.373Z,57.97
2019-03-18T12:35:21.923Z,57.98
2019-03-18T12:37:50.450Z,57.80
2019-03-18T12:40:19.177Z,56.67
2019-03-18T12:42:47.626Z,55.83
2019-03-18T12:45:16.959Z,49.97
2019-03-18T12:47:45.428Z,49.55
2019-03-18T12:50:18.468Z,47.66
2019-03-18T12:52:47.038Z,48.97
2019-03-18T12:55:15.572Z,47.81
2019-03-18T12:57:44.033Z,45.50
2019-03-18T13:00:18.151Z,45.64
2019-03-18T13:02:46.687Z,45.44
2019-03-18T13:05:15.128Z,46.64
2019-03-18T13:07:43.537Z,46.86
2019-03-18T13:10:20.929Z,44.77
2019-03-18T13:12:47.591Z,44.74
2019-03-18T13:15:19.854Z,45.20
2019-03-18T13:17:48.232Z,43.59
2019-03-18T13:20:20.559Z,41.04
2019-03-18T13:22:48.966Z,40.20
2019-03-18T13:25:17.424Z,41.27
2019-03-18T13:27:45.899Z,40.74
2019-03-18T13:30:17.072Z,40.37
2019-03-18T13:32:45.738Z,39.32
2019-03-18T13:35:14.390Z,40.63
2019-03-18T13:37:42.788Z,39.69
2019-03-18T13:40:16.010Z,37.71
2019-03-18T13:42:44.471Z,37.28
2019-03-18T13:45:20.042Z,37.67
2019-03-18T13:47:48.605Z,36.88
2019-03-18T13:50:21.956Z,37.30
2019-03-18T13:52:50.423Z,36.69
2019-03-18T13:55:18.924Z,38.07
2019-03-18T13:57:47.301Z,38.32
2019-03-18T14:00:20.708Z,37.74
2019-03-18T14:02:49.427Z,35.67
2019-03-18T14:05:17.824Z,36.00
2019-03-18T14:07:58.993Z,35.32
2019-03-18T14:10:23.574Z,36.38
2019-03-18T14:12:52.026Z,38.20
2019-03-18T14:15:24.350Z,36.61
2019-03-18T14:17:53.013Z,36.45
2019-03-18T14:20:23.142Z,36.01
2019-03-18T14:22:51.643Z,37.01
2019-03-18T14:25:20.043Z,37.09
2019-03-18T14:27:48.419Z,37.63
2019-03-18T14:30:17.753Z,36.67
2019-03-18T14:32:46.210Z,37.02
2019-03-18T14:35:15.052Z,36.20
2019-03-18T14:37:43.433Z,36.20
2019-03-18T14:40:25.646Z,36.33
2019-03-18T14:42:54.029Z,36.23
2019-03-18T14:45:24.218Z,36.43
2019-03-18T14:47:52.696Z,36.76
2019-03-18T14:50:21.071Z,37.14
2019-03-18T14:52:49.476Z,37.52
2019-03-18T14:55:19.470Z,37.63
2019-03-18T14:57:47.960Z,37.83
2019-03-18T15:00:23.700Z,36.24
2019-03-18T15:02:52.095Z,36.16
2019-03-18T15:05:20.543Z,36.20
2019-03-18T15:07:48.964Z,38.42
2019-03-18T15:10:18.797Z,35.23
2019-03-18T15:12:47.189Z,35.76
2019-03-18T15:15:17.343Z,33.72
2019-03-18T15:17:45.742Z,34.60
2019-03-18T15:20:18.667Z,33.10
2019-03-18T15:22:47.718Z,34.52
2019-03-18T15:25:26.491Z,41.78
2019-03-18T15:27:54.876Z,43.08
2019-03-18T15:30:23.445Z,40.14
2019-03-18T15:32:51.856Z,41.27
2019-03-18T15:35:20.225Z,44.10
2019-03-18T15:37:48.651Z,44.79
2019-03-18T15:40:19.523Z,43.35
2019-03-18T15:42:47.973Z,43.81
2019-03-18T15:45:18.024Z,43.70
2019-03-18T15:47:46.429Z,43.71
2019-03-18T15:50:27.472Z,42.10
2019-03-18T15:52:55.853Z,43.29
2019-03-18T15:55:24.683Z,44.54
2019-03-18T15:57:53.127Z,43.03
2019-03-18T16:00:24.037Z,42.96
2019-03-18T16:02:53.006Z,43.25
2019-03-18T16:05:21.393Z,41.69
2019-03-18T16:07:49.786Z,41.89
2019-03-18T16:10:19.240Z,39.87
2019-03-18T16:12:47.637Z,39.59
2019-03-18T16:15:17.894Z,39.60
2019-03-18T16:17:46.389Z,37.49
2019-03-18T16:20:23.218Z,36.33
2019-03-18T16:22:51.607Z,36.08
2019-03-18T16:25:20.118Z,35.81
2019-03-18T16:27:48.505Z,35.86
2019-03-18T16:30:21.689Z,36.25
2019-03-18T16:32:50.216Z,36.70
2019-03-18T16:35:18.777Z,36.95
2019-03-18T16:37:47.148Z,38.82
2019-03-18T16:40:19.058Z,40.66
2019-03-18T16:42:47.448Z,41.87
2019-03-18T16:45:16.980Z,42.94
2019-03-18T16:47:45.673Z,44.35
2019-03-18T16:50:17.124Z,44.64
2019-03-18T16:52:45.502Z,44.65
2019-03-18T16:55:13.974Z,46.19
2019-03-18T16:57:42.384Z,46.25
2019-03-18T17:00:16.800Z,46.48
2019-03-18T17:02:45.577Z,46.50
2019-03-18T17:05:14.308Z,47.13
2019-03-18T17:07:42.765Z,47.31
2019-03-18T17:10:15.316Z,47.98
2019-03-18T17:12:44.033Z,47.74
2019-03-18T17:15:20.337Z,48.00
2019-03-18T17:17:49.097Z,47.47
2019-03-18T17:20:17.817Z,47.82
2019-03-18T17:22:50.404Z,46.73
2019-03-18T17:25:22.348Z,47.28
2019-03-18T17:27:50.730Z,47.78
2019-03-18T17:30:20.156Z,47.55
2019-03-18T17:32:49.035Z,47.51
2019-03-18T17:35:17.414Z,47.28
2019-03-18T17:37:45.806Z,46.34
2019-03-18T17:40:15.538Z,46.24
2019-03-18T17:42:43.995Z,46.14
2019-03-18T17:45:14.688Z,46.74
2019-03-18T17:47:43.078Z,45.90
2019-03-18T17:50:19.589Z,46.48
2019-03-18T17:53:01.013Z,46.36
2019-03-18T17:55:18.387Z,46.61
2019-03-18T17:57:46.887Z,47.09
2019-03-18T18:00:18.043Z,47.24
2019-03-18T18:02:46.434Z,46.92
2019-03-18T18:05:14.928Z,47.12
2019-03-18T18:07:43.394Z,48.13
2019-03-18T18:10:12.152Z,47.70
2019-03-18T18:12:40.719Z,48.07
2019-03-18T18:15:12.439Z,47.91
2019-03-18T18:17:40.803Z,47.40
2019-03-18T18:20:11.687Z,48.47
2019-03-18T18:22:41.129Z,48.77
2019-03-18T18:25:11.163Z,49.51
2019-03-18T18:27:40.810Z,49.68
2019-03-18T18:30:14.514Z,49.32
2019-03-18T18:32:43.051Z,48.45
2019-03-18T18:35:12.296Z,48.37
2019-03-18T18:37:40.684Z,48.93
2019-03-18T18:40:20.220Z,50.93
2019-03-18T18:42:48.623Z,51.21
2019-03-18T18:45:17.005Z,51.71
2019-03-18T18:47:45.509Z,52.42
2019-03-18T18:50:14.935Z,52.49
2019-03-18T18:52:43.320Z,53.15
2019-03-18T18:55:13.745Z,53.49
2019-03-18T18:57:42.204Z,54.97
2019-03-18T19:00:15.655Z,54.11
2019-03-18T19:02:44.569Z,54.40
2019-03-18T19:05:14.957Z,55.42
2019-03-18T19:07:43.992Z,57.09
2019-03-18T19:10:15.459Z,56.92
2019-03-18T19:12:43.919Z,56.77
2019-03-18T19:15:15.364Z,56.86
2019-03-18T19:17:43.775Z,56.62
2019-03-18T19:20:13.702Z,56.70
2019-03-18T19:22:42.084Z,56.81
2019-03-18T19:25:12.650Z,57.72
2019-03-18T19:27:41.038Z,59.24
2019-03-18T19:30:23.578Z,59.34
2019-03-18T19:32:51.969Z,59.03
2019-03-18T19:35:20.693Z,59.34
2019-03-18T19:37:49.321Z,59.06
2019-03-18T19:40:19.819Z,59.87
2019-03-18T19:42:48.195Z,60.45
2019-03-18T19:45:16.693Z,60.47
2019-03-18T19:47:45.082Z,60.54
2019-03-18T19:50:18.781Z,61.89
2019-03-18T19:52:47.176Z,61.77
2019-03-18T19:55:15.569Z,62.62
2019-03-18T19:57:43.979Z,63.72
2019-03-18T20:00:15.358Z,63.65
2019-03-18T20:02:43.821Z,64.30
2019-03-18T20:05:15.704Z,63.65
2019-03-18T20:07:42.441Z,63.02
2019-03-18T20:10:13.278Z,62.82
2019-03-18T20:12:41.776Z,63.41
2019-03-18T20:15:12.914Z,63.71
2019-03-18T20:17:41.306Z,63.54
2019-03-18T20:20:18.092Z,63.11
2019-03-18T20:22:46.542Z,64.27
2019-03-18T20:25:15.076Z,63.93
2019-03-18T20:27:43.477Z,64.07
2019-03-18T20:30:17.205Z,64.64
2019-03-18T20:32:45.619Z,64.62
2019-03-18T20:35:16.296Z,64.75
2019-03-18T20:37:44.685Z,64.93
2019-03-18T20:40:15.088Z,66.01
2019-03-18T20:42:43.542Z,65.63
2019-03-18T20:45:23.037Z,65.39
2019-03-18T20:47:51.438Z,67.29
2019-03-18T20:50:23.274Z,67.40
2019-03-18T20:52:52.447Z,67.62
2019-03-18T20:55:20.973Z,67.67
2019-03-18T20:57:49.364Z,68.57
2019-03-18T21:00:22.502Z,69.67
2019-03-18T21:02:50.893Z,68.44
2019-03-18T21:05:19.412Z,68.62
2019-03-18T21:07:47.844Z,69.03
2019-03-18T21:10:17.375Z,68.83
2019-03-18T21:12:45.933Z,68.85
2019-03-18T21:15:15.367Z,68.69
2019-03-18T21:17:43.831Z,68.56
2019-03-18T21:20:22.069Z,69.46
2019-03-18T21:22:50.528Z,70.69
2019-03-18T21:25:18.915Z,70.15
2019-03-18T21:27:47.428Z,69.54
2019-03-18T21:30:22.735Z,69.38
2019-03-18T21:32:51.301Z,69.10
2019-03-18T21:35:19.690Z,69.17
2019-03-18T21:37:48.081Z,69.49
2019-03-18T21:40:20.824Z,69.28
2019-03-18T21:42:51.260Z,70.10
2019-03-18T21:45:23.181Z,70.92
2019-03-18T21:47:50.862Z,71.81
2019-03-18T21:50:19.439Z,70.85
2019-03-18T21:52:47.830Z,70.36
2019-03-18T21:55:17.170Z,70.23
2019-03-18T21:57:45.574Z,70.48
2019-03-18T22:00:16.470Z,70.89
2019-03-18T22:02:45.220Z,70.87
2019-03-18T22:05:13.750Z,71.41
2019-03-18T22:07:42.141Z,72.09
2019-03-18T22:10:21.363Z,71.64
2019-03-18T22:12:50.045Z,71.05
2019-03-18T22:15:18.418Z,72.04
2019-03-18T22:17:46.914Z,71.94
2019-03-18T22:20:16.141Z,72.00
2019-03-18T22:22:44.599Z,72.21
2019-03-18T22:25:14.554Z,72.11
2019-03-18T22:27:43.181Z,72.69
2019-03-18T22:30:14.122Z,71.02
2019-03-18T22:32:42.526Z,71.20
2019-03-18T22:35:11.377Z,72.25
2019-03-18T22:37:39.796Z,72.54
2019-03-18T22:40:14.068Z,72.18
2019-03-18T22:42:42.460Z,73.10
2019-03-18T22:45:13.209Z,73.30
2019-03-18T22:47:41.597Z,73.68
2019-03-18T22:50:11.730Z,72.91
2019-03-18T22:52:40.147Z,73.26
2019-03-18T22:55:11.227Z,72.83
2019-03-18T22:57:39.689Z,72.71
2019-03-18T23:00:21.568Z,73.25
2019-03-18T23:02:50.207Z,73.05
2019-03-18T23:05:18.683Z,72.96
2019-03-18T23:07:47.092Z,72.06
2019-03-18T23:10:15.492Z,72.78
2019-03-18T23:12:43.904Z,74.27
2019-03-18T23:15:12.647Z,75.21
2019-03-18T23:17:41.031Z,74.73
2019-03-18T23:20:09.807Z,74.10
2019-03-18T23:22:38.232Z,74.62
2019-03-18T23:25:08.198Z,74.15
2019-03-18T23:27:37.022Z,75.12
2019-03-18T23:30:13.569Z,75.91
2019-03-18T23:32:41.975Z,76.79
2019-03-18T23:35:10.496Z,75.49
2019-03-18T23:37:40.429Z,75.32
2019-03-18T23:40:12.933Z,74.07
2019-03-18T23:42:41.322Z,73.68
2019-03-18T23:45:11.247Z,71.45
2019-03-18T23:47:39.733Z,72.17
2019-03-18T23:50:15.472Z,73.62
2019-03-18T23:52:43.852Z,74.45
2019-03-18T23:55:19.180Z,75.16
2019-03-18T23:57:42.368Z,74.36
